sensor_id;sensor_type;location;lat;lon;timestamp;P1;durP1;ratioP1;P2;durP2;ratioP2
56830;SDS011;42713;42.676;23.352;2022-10-28T00:01:18;12.52;;;5.28;;
56830;SDS011;42713;42.676;23.352;2022-10-28T00:03:46;15.15;;;5.88;;
56830;SDS011;42713;42.676;23.352;2022-10-28T00:06:18;12.95;;;5.82;;
56830;SDS011;42713;42.676;23.352;2022-10-28T00:08:48;16.58;;;6.00;;
56830;SDS011;42713;42.676;23.352;2022-10-28T00:11:18;12.55;;;6.00;;
56830;SDS011;42713;42.676;23.352;2022-10-28T00:13:48;14.90;;;5.55;;
56830;SDS011;42713;42.676;23.352;2022-10-28T00:16:19;13.38;;;5.97;;
56830;SDS011;42713;42.676;23.352;2022-10-28T00:18:47;15.82;;;6.47;;
56830;SDS011;42713;42.676;23.352;2022-10-28T00:21:14;14.43;;;6.47;;
56830;SDS011;42713;42.676;23.352;2022-10-28T00:23:42;15.57;;;6.90;;
56830;SDS011;42713;42.676;23.352;2022-10-28T00:26:10;16.08;;;6.82;;
56830;SDS011;42713;42.676;23.352;2022-10-28T00:28:47;14.27;;;6.03;;
56830;SDS011;42713;42.676;23.352;2022-10-28T00:31:15;16.25;;;6.45;;
56830;SDS011;42713;42.676;23.352;2022-10-28T00:33:41;15.95;;;6.53;;
56830;SDS011;42713;42.676;23.352;2022-10-28T00:36:15;15.73;;;6.47;;
56830;SDS011;42713;42.676;23.352;2022-10-28T00:38:45;15.60;;;5.90;;
56830;SDS011;42713;42.676;23.352;2022-10-28T00:41:14;14.52;;;6.55;;
56830;SDS011;42713;42.676;23.352;2022-10-28T00:43:49;17.77;;;6.80;;
56830;SDS011;42713;42.676;23.352;2022-10-28T00:48:59;13.25;;;5.95;;
56830;SDS011;42713;42.676;23.352;2022-10-28T00:51:45;17.27;;;6.63;;
56830;SDS011;42713;42.676;23.352;2022-10-28T00:54:13;12.25;;;5.75;;
56830;SDS011;42713;42.676;23.352;2022-10-28T00:56:41;15.15;;;6.30;;
56830;SDS011;42713;42.676;23.352;2022-10-28T00:59:12;13.77;;;6.40;;
56830;SDS011;42713;42.676;23.352;2022-10-28T01:01:43;16.02;;;6.53;;
56830;SDS011;42713;42.676;23.352;2022-10-28T01:04:08;12.88;;;6.60;;
56830;SDS011;42713;42.676;23.352;2022-10-28T01:06:34;14.70;;;6.68;;
56830;SDS011;42713;42.676;23.352;2022-10-28T01:09:00;12.75;;;5.78;;
56830;SDS011;42713;42.676;23.352;2022-10-28T01:17:11;16.98;;;6.50;;
56830;SDS011;42713;42.676;23.352;2022-10-28T01:31:22;19.17;;;8.02;;
56830;SDS011;42713;42.676;23.352;2022-10-28T01:47:23;19.20;;;8.15;;
56830;SDS011;42713;42.676;23.352;2022-10-28T01:50:10;15.30;;;6.40;;
56830;SDS011;42713;42.676;23.352;2022-10-28T01:52:40;16.33;;;6.85;;
56830;SDS011;42713;42.676;23.352;2022-10-28T01:55:13;14.50;;;6.95;;
56830;SDS011;42713;42.676;23.352;2022-10-28T01:57:42;20.63;;;7.20;;
56830;SDS011;42713;42.676;23.352;2022-10-28T02:00:10;14.30;;;6.93;;
56830;SDS011;42713;42.676;23.352;2022-10-28T02:02:36;14.93;;;7.40;;
56830;SDS011;42713;42.676;23.352;2022-10-28T02:05:51;18.40;;;6.80;;
56830;SDS011;42713;42.676;23.352;2022-10-28T02:08:28;15.75;;;7.35;;
56830;SDS011;42713;42.676;23.352;2022-10-28T02:11:24;15.27;;;6.82;;
56830;SDS011;42713;42.676;23.352;2022-10-28T02:16:46;14.10;;;6.82;;
56830;SDS011;42713;42.676;23.352;2022-10-28T02:22:20;17.38;;;6.18;;
56830;SDS011;42713;42.676;23.352;2022-10-28T02:33:00;16.30;;;6.40;;
56830;SDS011;42713;42.676;23.352;2022-10-28T02:35:44;13.73;;;6.32;;
56830;SDS011;42713;42.676;23.352;2022-10-28T02:38:16;16.77;;;6.43;;
56830;SDS011;42713;42.676;23.352;2022-10-28T02:40:47;19.08;;;6.40;;
56830;SDS011;42713;42.676;23.352;2022-10-28T02:43:16;14.32;;;6.13;;
56830;SDS011;42713;42.676;23.352;2022-10-28T02:45:44;18.10;;;5.90;;
56830;SDS011;42713;42.676;23.352;2022-10-28T02:48:35;16.35;;;5.65;;
56830;SDS011;42713;42.676;23.352;2022-10-28T02:51:23;13.10;;;6.07;;
56830;SDS011;42713;42.676;23.352;2022-10-28T02:53:55;14.63;;;5.57;;
56830;SDS011;42713;42.676;23.352;2022-10-28T02:56:27;14.35;;;5.63;;
56830;SDS011;42713;42.676;23.352;2022-10-28T02:58:57;16.10;;;5.75;;
56830;SDS011;42713;42.676;23.352;2022-10-28T03:01:22;12.85;;;6.00;;
56830;SDS011;42713;42.676;23.352;2022-10-28T03:03:48;12.05;;;5.20;;
56830;SDS011;42713;42.676;23.352;2022-10-28T03:06:13;11.77;;;5.30;;
56830;SDS011;42713;42.676;23.352;2022-10-28T03:08:39;10.45;;;5.47;;
56830;SDS011;42713;42.676;23.352;2022-10-28T03:11:04;17.90;;;5.65;;
56830;SDS011;42713;42.676;23.352;2022-10-28T03:13:30;15.43;;;4.95;;
56830;SDS011;42713;42.676;23.352;2022-10-28T03:15:55;15.98;;;5.57;;
56830;SDS011;42713;42.676;23.352;2022-10-28T03:18:22;14.10;;;5.50;;
56830;SDS011;42713;42.676;23.352;2022-10-28T03:20:47;15.35;;;5.72;;
56830;SDS011;42713;42.676;23.352;2022-10-28T03:23:13;12.68;;;5.05;;
56830;SDS011;42713;42.676;23.352;2022-10-28T03:25:38;15.15;;;5.78;;
56830;SDS011;42713;42.676;23.352;2022-10-28T03:28:04;11.55;;;4.85;;
56830;SDS011;42713;42.676;23.352;2022-10-28T03:30:29;14.52;;;5.20;;
56830;SDS011;42713;42.676;23.352;2022-10-28T03:32:55;12.40;;;5.18;;
56830;SDS011;42713;42.676;23.352;2022-10-28T03:35:20;11.80;;;5.30;;
56830;SDS011;42713;42.676;23.352;2022-10-28T03:37:46;11.75;;;5.13;;
56830;SDS011;42713;42.676;23.352;2022-10-28T03:40:11;13.85;;;6.32;;
56830;SDS011;42713;42.676;23.352;2022-10-28T03:42:39;13.05;;;5.30;;
56830;SDS011;42713;42.676;23.352;2022-10-28T03:45:05;13.93;;;4.50;;
56830;SDS011;42713;42.676;23.352;2022-10-28T03:47:32;9.63;;;4.95;;
56830;SDS011;42713;42.676;23.352;2022-10-28T03:49:58;16.92;;;4.90;;
56830;SDS011;42713;42.676;23.352;2022-10-28T03:52:24;11.90;;;5.00;;
56830;SDS011;42713;42.676;23.352;2022-10-28T03:54:49;15.02;;;5.35;;
56830;SDS011;42713;42.676;23.352;2022-10-28T03:57:15;11.98;;;4.80;;
56830;SDS011;42713;42.676;23.352;2022-10-28T03:59:40;17.27;;;5.55;;
56830;SDS011;42713;42.676;23.352;2022-10-28T04:02:06;11.38;;;4.38;;
56830;SDS011;42713;42.676;23.352;2022-10-28T04:04:31;9.57;;;4.28;;
56830;SDS011;42713;42.676;23.352;2022-10-28T04:06:57;13.23;;;5.53;;
56830;SDS011;42713;42.676;23.352;2022-10-28T04:09:22;12.20;;;5.15;;
56830;SDS011;42713;42.676;23.352;2022-10-28T04:11:47;14.15;;;5.05;;
56830;SDS011;42713;42.676;23.352;2022-10-28T04:14:13;11.02;;;4.78;;
56830;SDS011;42713;42.676;23.352;2022-10-28T04:16:39;11.20;;;4.43;;
56830;SDS011;42713;42.676;23.352;2022-10-28T04:19:04;12.63;;;4.38;;
56830;SDS011;42713;42.676;23.352;2022-10-28T04:21:30;11.75;;;4.63;;
56830;SDS011;42713;42.676;23.352;2022-10-28T04:23:55;11.90;;;4.80;;
56830;SDS011;42713;42.676;23.352;2022-10-28T04:26:20;14.75;;;4.47;;
56830;SDS011;42713;42.676;23.352;2022-10-28T04:28:46;13.05;;;4.35;;
56830;SDS011;42713;42.676;23.352;2022-10-28T04:31:11;11.02;;;4.13;;
56830;SDS011;42713;42.676;23.352;2022-10-28T04:33:37;11.10;;;4.82;;
56830;SDS011;42713;42.676;23.352;2022-10-28T04:36:02;12.55;;;4.60;;
56830;SDS011;42713;42.676;23.352;2022-10-28T04:38:28;17.95;;;5.88;;
56830;SDS011;42713;42.676;23.352;2022-10-28T04:40:53;12.38;;;4.85;;
56830;SDS011;42713;42.676;23.352;2022-10-28T04:43:19;10.82;;;4.53;;
56830;SDS011;42713;42.676;23.352;2022-10-28T04:45:45;11.93;;;4.30;;
56830;SDS011;42713;42.676;23.352;2022-10-28T04:48:11;10.98;;;4.93;;
56830;SDS011;42713;42.676;23.352;2022-10-28T04:50:36;12.57;;;4.18;;
56830;SDS011;42713;42.676;23.352;2022-10-28T04:53:02;14.23;;;4.22;;
56830;SDS011;42713;42.676;23.352;2022-10-28T04:55:29;14.63;;;5.00;;
56830;SDS011;42713;42.676;23.352;2022-10-28T04:57:55;15.93;;;5.53;;
56830;SDS011;42713;42.676;23.352;2022-10-28T05:00:22;16.92;;;5.35;;
56830;SDS011;42713;42.676;23.352;2022-10-28T05:02:49;18.98;;;7.10;;
56830;SDS011;42713;42.676;23.352;2022-10-28T05:05:15;18.13;;;7.43;;
56830;SDS011;42713;42.676;23.352;2022-10-28T05:07:40;18.70;;;6.75;;
56830;SDS011;42713;42.676;23.352;2022-10-28T05:10:06;17.83;;;7.45;;
56830;SDS011;42713;42.676;23.352;2022-10-28T05:12:32;17.58;;;7.50;;
56830;SDS011;42713;42.676;23.352;2022-10-28T05:14:57;20.95;;;7.47;;
56830;SDS011;42713;42.676;23.352;2022-10-28T05:17:22;17.80;;;7.80;;
56830;SDS011;42713;42.676;23.352;2022-10-28T05:19:48;16.42;;;6.97;;
56830;SDS011;42713;42.676;23.352;2022-10-28T05:22:13;15.85;;;7.22;;
56830;SDS011;42713;42.676;23.352;2022-10-28T05:24:39;20.10;;;7.10;;
56830;SDS011;42713;42.676;23.352;2022-10-28T05:27:04;21.25;;;7.95;;
56830;SDS011;42713;42.676;23.352;2022-10-28T05:29:30;16.27;;;8.23;;
56830;SDS011;42713;42.676;23.352;2022-10-28T05:31:55;20.60;;;8.38;;
56830;SDS011;42713;42.676;23.352;2022-10-28T05:34:21;20.48;;;8.68;;
56830;SDS011;42713;42.676;23.352;2022-10-28T05:36:46;28.00;;;9.82;;
56830;SDS011;42713;42.676;23.352;2022-10-28T05:39:12;24.20;;;9.98;;
56830;SDS011;42713;42.676;23.352;2022-10-28T05:41:38;25.38;;;9.20;;
56830;SDS011;42713;42.676;23.352;2022-10-28T05:44:04;24.27;;;8.55;;
56830;SDS011;42713;42.676;23.352;2022-10-28T05:46:29;21.20;;;9.05;;
56830;SDS011;42713;42.676;23.352;2022-10-28T05:48:55;23.95;;;9.68;;
56830;SDS011;42713;42.676;23.352;2022-10-28T05:51:20;27.58;;;9.73;;
56830;SDS011;42713;42.676;23.352;2022-10-28T05:53:46;24.20;;;9.73;;
56830;SDS011;42713;42.676;23.352;2022-10-28T05:56:11;22.38;;;9.55;;
56830;SDS011;42713;42.676;23.352;2022-10-28T05:58:39;24.48;;;10.23;;
56830;SDS011;42713;42.676;23.352;2022-10-28T06:01:05;26.38;;;10.43;;
56830;SDS011;42713;42.676;23.352;2022-10-28T06:03:31;29.60;;;10.10;;
56830;SDS011;42713;42.676;23.352;2022-10-28T06:05:57;25.13;;;10.55;;
56830;SDS011;42713;42.676;23.352;2022-10-28T06:08:23;28.08;;;10.55;;
56830;SDS011;42713;42.676;23.352;2022-10-28T06:10:49;23.48;;;10.80;;
56830;SDS011;42713;42.676;23.352;2022-10-28T06:13:15;24.85;;;9.85;;
56830;SDS011;42713;42.676;23.352;2022-10-28T06:15:41;22.75;;;10.23;;
56830;SDS011;42713;42.676;23.352;2022-10-28T06:18:06;21.88;;;9.60;;
56830;SDS011;42713;42.676;23.352;2022-10-28T06:20:32;23.20;;;9.55;;
56830;SDS011;42713;42.676;23.352;2022-10-28T06:26:20;22.48;;;9.48;;
56830;SDS011;42713;42.676;23.352;2022-10-28T06:31:29;26.40;;;9.82;;
56830;SDS011;42713;42.676;23.352;2022-10-28T06:34:00;23.42;;;10.63;;
56830;SDS011;42713;42.676;23.352;2022-10-28T06:36:26;26.35;;;10.40;;
56830;SDS011;42713;42.676;23.352;2022-10-28T06:38:59;23.00;;;10.60;;
56830;SDS011;42713;42.676;23.352;2022-10-28T06:41:47;24.88;;;10.00;;
56830;SDS011;42713;42.676;23.352;2022-10-28T06:44:21;18.67;;;8.63;;
56830;SDS011;42713;42.676;23.352;2022-10-28T06:46:47;21.35;;;9.10;;
56830;SDS011;42713;42.676;23.352;2022-10-28T06:49:13;22.45;;;9.30;;
56830;SDS011;42713;42.676;23.352;2022-10-28T06:51:38;25.33;;;9.40;;
56830;SDS011;42713;42.676;23.352;2022-10-28T06:54:12;22.80;;;8.35;;
56830;SDS011;42713;42.676;23.352;2022-10-28T06:56:41;24.15;;;8.55;;
56830;SDS011;42713;42.676;23.352;2022-10-28T07:01:34;20.90;;;7.50;;
56830;SDS011;42713;42.676;23.352;2022-10-28T07:04:02;20.58;;;8.50;;
56830;SDS011;42713;42.676;23.352;2022-10-28T07:06:36;19.05;;;8.00;;
56830;SDS011;42713;42.676;23.352;2022-10-28T07:09:03;22.08;;;7.85;;
56830;SDS011;42713;42.676;23.352;2022-10-28T07:11:29;17.95;;;8.35;;
56830;SDS011;42713;42.676;23.352;2022-10-28T07:13:54;17.00;;;7.97;;
56830;SDS011;42713;42.676;23.352;2022-10-28T07:16:20;23.02;;;8.93;;
56830;SDS011;42713;42.676;23.352;2022-10-28T07:18:46;20.95;;;7.63;;
56830;SDS011;42713;42.676;23.352;2022-10-28T07:21:33;20.92;;;8.05;;
56830;SDS011;42713;42.676;23.352;2022-10-28T07:23:59;19.52;;;8.60;;
56830;SDS011;42713;42.676;23.352;2022-10-28T07:26:24;18.67;;;8.77;;
56830;SDS011;42713;42.676;23.352;2022-10-28T07:28:50;22.95;;;9.65;;
56830;SDS011;42713;42.676;23.352;2022-10-28T07:31:16;28.98;;;10.55;;
56830;SDS011;42713;42.676;23.352;2022-10-28T07:33:42;24.52;;;10.65;;
56830;SDS011;42713;42.676;23.352;2022-10-28T07:36:08;22.05;;;12.63;;
56830;SDS011;42713;42.676;23.352;2022-10-28T07:38:34;29.17;;;11.70;;
56830;SDS011;42713;42.676;23.352;2022-10-28T07:41:04;28.27;;;11.63;;
56830;SDS011;42713;42.676;23.352;2022-10-28T07:43:34;30.00;;;11.38;;
56830;SDS011;42713;42.676;23.352;2022-10-28T07:46:00;28.60;;;11.30;;
56830;SDS011;42713;42.676;23.352;2022-10-28T07:48:26;31.30;;;12.35;;
56830;SDS011;42713;42.676;23.352;2022-10-28T07:50:51;24.85;;;11.43;;
56830;SDS011;42713;42.676;23.352;2022-10-28T07:53:17;33.45;;;12.38;;
56830;SDS011;42713;42.676;23.352;2022-10-28T07:55:42;25.63;;;11.45;;
56830;SDS011;42713;42.676;23.352;2022-10-28T07:58:08;23.13;;;10.73;;
56830;SDS011;42713;42.676;23.352;2022-10-28T08:00:33;26.38;;;11.07;;
56830;SDS011;42713;42.676;23.352;2022-10-28T08:03:00;25.52;;;11.02;;
56830;SDS011;42713;42.676;23.352;2022-10-28T08:05:27;23.35;;;10.85;;
56830;SDS011;42713;42.676;23.352;2022-10-28T08:07:52;23.30;;;10.75;;
56830;SDS011;42713;42.676;23.352;2022-10-28T08:10:18;25.48;;;10.73;;
56830;SDS011;42713;42.676;23.352;2022-10-28T08:12:43;20.52;;;11.05;;
56830;SDS011;42713;42.676;23.352;2022-10-28T08:17:45;23.08;;;10.65;;
56830;SDS011;42713;42.676;23.352;2022-10-28T08:20:15;26.30;;;10.55;;
56830;SDS011;42713;42.676;23.352;2022-10-28T08:22:40;24.73;;;9.80;;
56830;SDS011;42713;42.676;23.352;2022-10-28T08:25:06;20.38;;;9.93;;
56830;SDS011;42713;42.676;23.352;2022-10-28T08:27:39;21.23;;;9.52;;
56830;SDS011;42713;42.676;23.352;2022-10-28T08:30:06;21.13;;;9.52;;
56830;SDS011;42713;42.676;23.352;2022-10-28T08:32:33;18.42;;;9.90;;
56830;SDS011;42713;42.676;23.352;2022-10-28T08:34:58;18.35;;;9.35;;
56830;SDS011;42713;42.676;23.352;2022-10-28T08:37:24;20.67;;;9.20;;
56830;SDS011;42713;42.676;23.352;2022-10-28T08:39:50;21.98;;;8.77;;
56830;SDS011;42713;42.676;23.352;2022-10-28T08:50:13;22.90;;;9.60;;
56830;SDS011;42713;42.676;23.352;2022-10-28T08:55:33;22.23;;;8.82;;
56830;SDS011;42713;42.676;23.352;2022-10-28T08:58:07;15.63;;;8.00;;
56830;SDS011;42713;42.676;23.352;2022-10-28T09:05:35;16.65;;;8.00;;
56830;SDS011;42713;42.676;23.352;2022-10-28T09:08:01;18.33;;;8.50;;
56830;SDS011;42713;42.676;23.352;2022-10-28T09:10:37;19.27;;;7.82;;
56830;SDS011;42713;42.676;23.352;2022-10-28T09:19:02;18.92;;;9.20;;
56830;SDS011;42713;42.676;23.352;2022-10-28T09:21:45;17.67;;;7.88;;
56830;SDS011;42713;42.676;23.352;2022-10-28T09:24:14;18.88;;;7.70;;
56830;SDS011;42713;42.676;23.352;2022-10-28T09:26:49;20.88;;;7.70;;
56830;SDS011;42713;42.676;23.352;2022-10-28T09:29:32;17.42;;;7.00;;
56830;SDS011;42713;42.676;23.352;2022-10-28T09:35:23;15.73;;;7.95;;
56830;SDS011;42713;42.676;23.352;2022-10-28T09:37:56;17.90;;;7.38;;
56830;SDS011;42713;42.676;23.352;2022-10-28T09:40:31;15.70;;;7.13;;
56830;SDS011;42713;42.676;23.352;2022-10-28T09:43:05;13.93;;;6.43;;
56830;SDS011;42713;42.676;23.352;2022-10-28T09:45:41;14.93;;;6.05;;
56830;SDS011;42713;42.676;23.352;2022-10-28T09:48:58;15.38;;;5.85;;
56830;SDS011;42713;42.676;23.352;2022-10-28T09:51:56;16.02;;;6.70;;
56830;SDS011;42713;42.676;23.352;2022-10-28T09:55:05;15.88;;;5.88;;
56830;SDS011;42713;42.676;23.352;2022-10-28T09:57:45;14.95;;;4.95;;
56830;SDS011;42713;42.676;23.352;2022-10-28T10:00:31;10.90;;;5.15;;
56830;SDS011;42713;42.676;23.352;2022-10-28T10:02:57;11.20;;;4.75;;
56830;SDS011;42713;42.676;23.352;2022-10-28T10:05:23;18.63;;;5.95;;
56830;SDS011;42713;42.676;23.352;2022-10-28T10:07:50;16.48;;;5.30;;
56830;SDS011;42713;42.676;23.352;2022-10-28T10:10:21;11.50;;;4.90;;
56830;SDS011;42713;42.676;23.352;2022-10-28T10:12:51;11.35;;;4.05;;
56830;SDS011;42713;42.676;23.352;2022-10-28T10:17:54;10.35;;;3.88;;
56830;SDS011;42713;42.676;23.352;2022-10-28T10:20:22;12.75;;;3.95;;
56830;SDS011;42713;42.676;23.352;2022-10-28T10:22:48;13.00;;;3.72;;
56830;SDS011;42713;42.676;23.352;2022-10-28T10:27:49;9.93;;;3.83;;
56830;SDS011;42713;42.676;23.352;2022-10-28T10:30:38;9.75;;;3.67;;
56830;SDS011;42713;42.676;23.352;2022-10-28T10:33:03;8.55;;;3.42;;
56830;SDS011;42713;42.676;23.352;2022-10-28T10:35:35;10.02;;;3.35;;
56830;SDS011;42713;42.676;23.352;2022-10-28T10:38:02;10.15;;;3.30;;
56830;SDS011;42713;42.676;23.352;2022-10-28T10:40:30;10.80;;;3.80;;
56830;SDS011;42713;42.676;23.352;2022-10-28T10:48:24;8.60;;;2.85;;
56830;SDS011;42713;42.676;23.352;2022-10-28T10:50:50;8.88;;;2.80;;
56830;SDS011;42713;42.676;23.352;2022-10-28T10:53:21;11.10;;;2.83;;
56830;SDS011;42713;42.676;23.352;2022-10-28T10:58:21;7.65;;;2.97;;
56830;SDS011;42713;42.676;23.352;2022-10-28T11:00:52;10.18;;;2.72;;
56830;SDS011;42713;42.676;23.352;2022-10-28T11:03:29;7.97;;;2.90;;
56830;SDS011;42713;42.676;23.352;2022-10-28T11:06:00;7.85;;;2.58;;
56830;SDS011;42713;42.676;23.352;2022-10-28T11:08:38;8.82;;;2.63;;
56830;SDS011;42713;42.676;23.352;2022-10-28T11:11:09;9.23;;;2.50;;
56830;SDS011;42713;42.676;23.352;2022-10-28T11:13:42;9.45;;;2.78;;
56830;SDS011;42713;42.676;23.352;2022-10-28T11:16:16;9.88;;;2.65;;
56830;SDS011;42713;42.676;23.352;2022-10-28T11:18:47;11.40;;;2.97;;
56830;SDS011;42713;42.676;23.352;2022-10-28T11:51:09;7.00;;;2.38;;
56830;SDS011;42713;42.676;23.352;2022-10-28T11:53:55;9.65;;;2.60;;
56830;SDS011;42713;42.676;23.352;2022-10-28T11:57:03;7.18;;;2.63;;
56830;SDS011;42713;42.676;23.352;2022-10-28T12:07:41;8.48;;;2.30;;
56830;SDS011;42713;42.676;23.352;2022-10-28T12:13:43;6.90;;;2.30;;
56830;SDS011;42713;42.676;23.352;2022-10-28T12:22:20;7.38;;;2.70;;
56830;SDS011;42713;42.676;23.352;2022-10-28T12:24:52;6.75;;;2.63;;
56830;SDS011;42713;42.676;23.352;2022-10-28T12:27:26;7.40;;;2.22;;
56830;SDS011;42713;42.676;23.352;2022-10-28T12:32:47;8.60;;;2.50;;
56830;SDS011;42713;42.676;23.352;2022-10-28T12:35:21;14.60;;;3.03;;
56830;SDS011;42713;42.676;23.352;2022-10-28T12:52:08;9.30;;;2.85;;
56830;SDS011;42713;42.676;23.352;2022-10-28T12:54:51;18.35;;;2.95;;
56830;SDS011;42713;42.676;23.352;2022-10-28T12:57:29;29.13;;;3.53;;
56830;SDS011;42713;42.676;23.352;2022-10-28T13:00:03;9.18;;;2.58;;
56830;SDS011;42713;42.676;23.352;2022-10-28T13:02:58;7.28;;;2.65;;
56830;SDS011;42713;42.676;23.352;2022-10-28T13:19:15;14.18;;;2.65;;
56830;SDS011;42713;42.676;23.352;2022-10-28T13:25:23;8.52;;;2.40;;
56830;SDS011;42713;42.676;23.352;2022-10-28T13:28:13;9.35;;;2.90;;
56830;SDS011;42713;42.676;23.352;2022-10-28T13:30:50;9.88;;;2.90;;
56830;SDS011;42713;42.676;23.352;2022-10-28T13:33:30;6.20;;;2.33;;
56830;SDS011;42713;42.676;23.352;2022-10-28T13:44:48;10.70;;;2.50;;
56830;SDS011;42713;42.676;23.352;2022-10-28T13:47:22;5.25;;;2.03;;
56830;SDS011;42713;42.676;23.352;2022-10-28T13:55:56;8.88;;;2.47;;
56830;SDS011;42713;42.676;23.352;2022-10-28T13:58:23;6.75;;;2.30;;
56830;SDS011;42713;42.676;23.352;2022-10-28T14:00:50;8.05;;;2.10;;
56830;SDS011;42713;42.676;23.352;2022-10-28T14:05:49;7.53;;;2.78;;
56830;SDS011;42713;42.676;23.352;2022-10-28T14:08:29;10.13;;;2.70;;
56830;SDS011;42713;42.676;23.352;2022-10-28T14:13:37;10.38;;;2.85;;
56830;SDS011;42713;42.676;23.352;2022-10-28T14:18:54;11.45;;;2.42;;
56830;SDS011;42713;42.676;23.352;2022-10-28T14:24:33;15.50;;;2.30;;
56830;SDS011;42713;42.676;23.352;2022-10-28T14:29:48;24.25;;;3.63;;
56830;SDS011;42713;42.676;23.352;2022-10-28T14:34:55;11.60;;;3.03;;
56830;SDS011;42713;42.676;23.352;2022-10-28T14:43:32;9.98;;;4.22;;
56830;SDS011;42713;42.676;23.352;2022-10-28T14:48:55;10.75;;;3.60;;
56830;SDS011;42713;42.676;23.352;2022-10-28T14:51:23;10.90;;;3.60;;
56830;SDS011;42713;42.676;23.352;2022-10-28T14:53:52;7.00;;;2.95;;
56830;SDS011;42713;42.676;23.352;2022-10-28T14:56:25;8.60;;;3.42;;
56830;SDS011;42713;42.676;23.352;2022-10-28T14:58:53;7.25;;;2.88;;
56830;SDS011;42713;42.676;23.352;2022-10-28T15:01:26;9.63;;;3.17;;
56830;SDS011;42713;42.676;23.352;2022-10-28T15:04:00;7.43;;;2.58;;
56830;SDS011;42713;42.676;23.352;2022-10-28T15:06:39;12.27;;;2.45;;
56830;SDS011;42713;42.676;23.352;2022-10-28T15:12:14;10.65;;;2.90;;
56830;SDS011;42713;42.676;23.352;2022-10-28T15:14:45;10.93;;;2.80;;
56830;SDS011;42713;42.676;23.352;2022-10-28T15:17:17;7.65;;;2.53;;
56830;SDS011;42713;42.676;23.352;2022-10-28T15:19:48;9.38;;;2.63;;
56830;SDS011;42713;42.676;23.352;2022-10-28T15:22:17;9.77;;;3.05;;
56830;SDS011;42713;42.676;23.352;2022-10-28T15:24:57;19.80;;;2.97;;
56830;SDS011;42713;42.676;23.352;2022-10-28T15:27:26;11.98;;;2.78;;
56830;SDS011;42713;42.676;23.352;2022-10-28T15:29:54;13.55;;;5.03;;
56830;SDS011;42713;42.676;23.352;2022-10-28T15:34:46;15.10;;;5.15;;
56830;SDS011;42713;42.676;23.352;2022-10-28T15:37:19;14.05;;;4.50;;
56830;SDS011;42713;42.676;23.352;2022-10-28T15:39:50;12.00;;;3.60;;
56830;SDS011;42713;42.676;23.352;2022-10-28T15:44:54;15.65;;;5.05;;
56830;SDS011;42713;42.676;23.352;2022-10-28T15:50:22;13.48;;;5.20;;
56830;SDS011;42713;42.676;23.352;2022-10-28T15:52:54;13.18;;;4.60;;
56830;SDS011;42713;42.676;23.352;2022-10-28T15:55:46;12.10;;;4.05;;
56830;SDS011;42713;42.676;23.352;2022-10-28T15:58:34;17.58;;;5.63;;
56830;SDS011;42713;42.676;23.352;2022-10-28T16:01:06;16.13;;;6.38;;
56830;SDS011;42713;42.676;23.352;2022-10-28T16:03:41;20.30;;;6.93;;
56830;SDS011;42713;42.676;23.352;2022-10-28T16:06:27;17.58;;;6.50;;
56830;SDS011;42713;42.676;23.352;2022-10-28T16:09:42;17.92;;;7.47;;
56830;SDS011;42713;42.676;23.352;2022-10-28T16:12:02;22.70;;;7.70;;
56830;SDS011;42713;42.676;23.352;2022-10-28T16:14:38;22.50;;;11.75;;
56830;SDS011;42713;42.676;23.352;2022-10-28T16:20:35;16.80;;;6.63;;
56830;SDS011;42713;42.676;23.352;2022-10-28T16:22:44;23.55;;;7.93;;
56830;SDS011;42713;42.676;23.352;2022-10-28T16:25:11;20.77;;;7.18;;
56830;SDS011;42713;42.676;23.352;2022-10-28T16:27:41;20.65;;;7.53;;
56830;SDS011;42713;42.676;23.352;2022-10-28T16:30:07;18.48;;;7.28;;
56830;SDS011;42713;42.676;23.352;2022-10-28T16:32:35;14.20;;;5.30;;
56830;SDS011;42713;42.676;23.352;2022-10-28T16:35:12;19.75;;;5.25;;
56830;SDS011;42713;42.676;23.352;2022-10-28T16:37:45;18.05;;;5.25;;
56830;SDS011;42713;42.676;23.352;2022-10-28T16:40:12;16.65;;;6.22;;
56830;SDS011;42713;42.676;23.352;2022-10-28T16:42:37;17.75;;;5.97;;
56830;SDS011;42713;42.676;23.352;2022-10-28T16:45:05;14.52;;;5.35;;
56830;SDS011;42713;42.676;23.352;2022-10-28T16:47:32;19.85;;;6.03;;
56830;SDS011;42713;42.676;23.352;2022-10-28T16:49:57;19.83;;;6.25;;
56830;SDS011;42713;42.676;23.352;2022-10-28T16:52:29;20.23;;;5.50;;
56830;SDS011;42713;42.676;23.352;2022-10-28T16:54:55;16.30;;;5.90;;
56830;SDS011;42713;42.676;23.352;2022-10-28T16:57:21;20.73;;;6.00;;
56830;SDS011;42713;42.676;23.352;2022-10-28T16:59:47;18.42;;;6.40;;
56830;SDS011;42713;42.676;23.352;2022-10-28T17:02:13;21.05;;;6.05;;
56830;SDS011;42713;42.676;23.352;2022-10-28T17:04:42;28.90;;;8.52;;
56830;SDS011;42713;42.676;23.352;2022-10-28T17:07:08;24.67;;;9.10;;
56830;SDS011;42713;42.676;23.352;2022-10-28T17:09:37;29.83;;;8.30;;
56830;SDS011;42713;42.676;23.352;2022-10-28T17:12:02;24.77;;;7.90;;
56830;SDS011;42713;42.676;23.352;2022-10-28T17:14:28;24.17;;;8.40;;
56830;SDS011;42713;42.676;23.352;2022-10-28T17:16:53;26.83;;;10.98;;
56830;SDS011;42713;42.676;23.352;2022-10-28T17:19:19;26.20;;;9.60;;
56830;SDS011;42713;42.676;23.352;2022-10-28T17:21:44;24.15;;;8.23;;
56830;SDS011;42713;42.676;23.352;2022-10-28T17:24:10;31.55;;;11.20;;
56830;SDS011;42713;42.676;23.352;2022-10-28T17:26:35;23.35;;;10.30;;
56830;SDS011;42713;42.676;23.352;2022-10-28T17:29:01;28.77;;;10.50;;
56830;SDS011;42713;42.676;23.352;2022-10-28T17:31:26;24.98;;;9.80;;
56830;SDS011;42713;42.676;23.352;2022-10-28T17:33:52;18.33;;;8.30;;
56830;SDS011;42713;42.676;23.352;2022-10-28T17:36:18;19.40;;;8.95;;
56830;SDS011;42713;42.676;23.352;2022-10-28T17:38:44;24.27;;;9.98;;
56830;SDS011;42713;42.676;23.352;2022-10-28T17:41:09;18.80;;;7.93;;
56830;SDS011;42713;42.676;23.352;2022-10-28T17:43:35;17.15;;;6.35;;
56830;SDS011;42713;42.676;23.352;2022-10-28T17:46:04;15.73;;;6.43;;
56830;SDS011;42713;42.676;23.352;2022-10-28T17:48:30;23.40;;;6.97;;
56830;SDS011;42713;42.676;23.352;2022-10-28T17:50:56;16.25;;;7.82;;
56830;SDS011;42713;42.676;23.352;2022-10-28T17:53:21;19.30;;;7.90;;
56830;SDS011;42713;42.676;23.352;2022-10-28T17:55:54;19.02;;;9.68;;
56830;SDS011;42713;42.676;23.352;2022-10-28T17:58:23;18.73;;;7.45;;
56830;SDS011;42713;42.676;23.352;2022-10-28T18:00:54;15.77;;;7.20;;
56830;SDS011;42713;42.676;23.352;2022-10-28T18:03:21;20.80;;;7.28;;
56830;SDS011;42713;42.676;23.352;2022-10-28T18:05:46;19.27;;;6.13;;
56830;SDS011;42713;42.676;23.352;2022-10-28T18:08:12;14.98;;;6.03;;
56830;SDS011;42713;42.676;23.352;2022-10-28T18:10:37;22.80;;;6.72;;
56830;SDS011;42713;42.676;23.352;2022-10-28T18:13:03;18.42;;;5.85;;
56830;SDS011;42713;42.676;23.352;2022-10-28T18:15:28;15.35;;;5.32;;
56830;SDS011;42713;42.676;23.352;2022-10-28T18:17:54;14.70;;;5.60;;
56830;SDS011;42713;42.676;23.352;2022-10-28T18:20:19;22.20;;;8.38;;
56830;SDS011;42713;42.676;23.352;2022-10-28T18:22:45;28.27;;;12.30;;
56830;SDS011;42713;42.676;23.352;2022-10-28T18:25:10;24.23;;;11.10;;
56830;SDS011;42713;42.676;23.352;2022-10-28T18:27:36;24.05;;;10.07;;
56830;SDS011;42713;42.676;23.352;2022-10-28T18:30:03;21.73;;;7.78;;